Time;durP1;ratioP1;P1;durP2;ratioP2;P2;SDS_P1;SDS_P2;PMS_P1;PMS_P2;Temp;Humidity;BMP_temperature;BMP_pressure;BME280_temperature;BME280_humidity;BME280_pressure;Samples;Min_cycle;Max_cycle;Signal;HPM_P1;HPM_P2
2021/03/05 00:00:26;;;;;;;33.03;13.60;;;2.00;99.90;;;;;;4959101;28;20194;-86
2021/03/05 00:02:52;;;;;;;30.47;14.00;;;2.00;99.90;;;;;;4975594;28;20186;-86
2021/03/05 00:05:19;;;;;;;28.57;12.73;;;2.00;99.90;;;;;;4976635;28;20179;-86
2021/03/05 00:07:45;;;;;;;29.23;13.93;;;2.00;99.90;;;;;;4976242;28;20194;-86
2021/03/05 00:10:14;;;;;;;27.37;12.30;;;2.30;99.90;;;;;;4959149;28;20183;-85
2021/03/05 00:12:40;;;;;;;23.60;11.80;;;1.90;99.90;;;;;;4976203;28;20170;-86
2021/03/05 00:15:08;;;;;;;31.63;13.83;;;2.40;99.90;;;;;;4943257;28;20210;-86
2021/03/05 00:17:34;;;;;;;34.03;16.30;;;1.80;99.90;;;;;;4974859;28;20679;-86
2021/03/05 00:20:01;;;;;;;37.07;16.50;;;1.70;99.90;;;;;;4959070;28;20187;-87
2021/03/05 00:22:27;;;;;;;34.73;16.43;;;1.70;99.90;;;;;;4974806;28;20183;-86
2021/03/05 00:24:52;;;;;;;29.27;12.10;;;2.60;99.90;;;;;;4958957;28;20190;-86
2021/03/05 00:27:18;;;;;;;36.00;16.03;;;2.40;99.90;;;;;;4958971;28;20239;-87
2021/03/05 00:29:43;;;;;;;35.17;15.43;;;1.70;99.90;;;;;;4975891;28;20211;-86
2021/03/05 00:32:09;;;;;;;33.20;15.87;;;1.70;99.90;;;;;;4975889;28;20672;-86
2021/03/05 00:34:36;;;;;;;30.70;14.97;;;3.40;99.90;;;;;;4958405;28;20214;-86
2021/03/05 00:37:02;;;;;;;27.87;11.47;;;1.80;99.90;;;;;;4976110;28;20637;-86
2021/03/05 00:39:28;;;;;;;39.57;17.03;;;1.70;99.90;;;;;;4974517;28;20707;-86
2021/03/05 00:41:54;;;;;;;37.30;17.03;;;3.50;99.90;;;;;;4974496;28;20329;-87
2021/03/05 00:44:21;;;;;;;35.10;17.43;;;3.10;99.90;;;;;;4976304;28;20187;-86
2021/03/05 00:46:47;;;;;;;42.70;15.97;;;2.40;99.90;;;;;;4975680;28;20566;-86
2021/03/05 00:49:13;;;;;;;44.43;17.93;;;3.00;99.90;;;;;;4976102;28;20206;-86
2021/03/05 00:51:39;;;;;;;52.87;19.53;;;1.90;99.90;;;;;;4975160;28;20628;-87
2021/03/05 00:54:06;;;;;;;38.33;16.80;;;2.20;99.90;;;;;;4974516;28;20305;-87
2021/03/05 00:56:31;;;;;;;47.83;19.17;;;1.60;99.90;;;;;;4975396;28;20198;-86
2021/03/05 00:58:57;;;;;;;43.63;17.97;;;1.60;99.90;;;;;;4975660;28;20186;-86
2021/03/05 01:01:23;;;;;;;46.33;18.23;;;1.60;99.90;;;;;;4958476;28;20184;-87
2021/03/05 01:03:49;;;;;;;49.07;19.97;;;3.10;99.90;;;;;;4975641;28;20222;-87
2021/03/05 01:06:14;;;;;;;41.93;17.80;;;3.20;99.90;;;;;;4974405;28;20627;-87
2021/03/05 01:08:40;;;;;;;47.23;19.80;;;1.60;99.90;;;;;;4974554;28;20183;-87
2021/03/05 01:11:05;;;;;;;50.53;19.90;;;1.60;99.90;;;;;;4974375;28;20218;-86
2021/03/05 01:13:31;;;;;;;51.17;20.87;;;1.60;99.90;;;;;;4973836;28;20667;-85
2021/03/05 01:15:57;;;;;;;47.70;19.20;;;1.90;99.90;;;;;;4975324;28;20186;-87
2021/03/05 01:18:22;;;;;;;44.13;18.33;;;2.50;99.90;;;;;;4975094;28;20261;-87
2021/03/05 01:20:49;;;;;;;50.90;20.43;;;1.60;99.90;;;;;;4975066;28;20533;-87
2021/03/05 01:23:16;;;;;;;58.40;20.87;;;1.90;99.90;;;;;;4974016;28;20199;-86
2021/03/05 01:25:42;;;;;;;45.17;18.30;;;1.60;99.90;;;;;;4975062;28;20225;-87
2021/03/05 01:28:08;;;;;;;54.20;21.33;;;3.00;99.90;;;;;;4957736;28;20716;-88
2021/03/05 01:30:34;;;;;;;50.43;19.83;;;1.70;99.90;;;;;;4973822;28;20266;-87
2021/03/05 01:33:00;;;;;;;44.40;19.40;;;1.80;99.90;;;;;;4974721;28;20210;-88
2021/03/05 01:35:27;;;;;;;42.23;19.93;;;1.70;99.90;;;;;;4973784;28;20183;-87
2021/03/05 01:37:54;;;;;;;45.93;18.03;;;1.70;99.90;;;;;;4973547;28;20277;-87
2021/03/05 01:40:28;;;;;;;43.33;18.53;;;1.70;99.90;;;;;;4975024;28;20247;-87
2021/03/05 01:42:53;;;;;;;44.80;17.90;;;1.70;99.90;;;;;;4974380;28;20764;-87
2021/03/05 01:45:23;;;;;;;40.50;17.13;;;1.70;99.90;;;;;;4957507;28;20186;-87
2021/03/05 01:48:05;;;;;;;41.20;15.33;;;3.50;99.90;;;;;;4974188;28;20186;-87
2021/03/05 01:50:34;;;;;;;40.50;17.30;;;1.70;99.90;;;;;;4974885;28;20209;-87
2021/03/05 01:53:03;;;;;;;27.90;12.87;;;1.70;99.90;;;;;;4974124;28;20593;-87
2021/03/05 01:55:29;;;;;;;32.90;14.30;;;1.70;99.90;;;;;;4974364;28;20202;-87
2021/03/05 01:57:56;;;;;;;32.90;15.57;;;1.70;99.90;;;;;;4941235;28;20609;-86
2021/03/05 02:00:34;;;;;;;39.90;17.57;;;2.10;99.90;;;;;;4974653;28;20183;-87
2021/03/05 02:03:00;;;;;;;35.67;16.07;;;1.60;99.90;;;;;;4957152;28;20182;-89
2021/03/05 02:05:26;;;;;;;33.43;16.17;;;1.60;99.90;;;;;;4974791;28;20245;-87
2021/03/05 02:07:51;;;;;;;42.97;18.30;;;3.40;99.90;;;;;;4955412;28;20678;-87
2021/03/05 02:10:17;;;;;;;39.37;15.00;;;1.60;99.90;;;;;;4956366;28;20643;-87
2021/03/05 02:12:43;;;;;;;36.93;16.93;;;1.60;99.90;;;;;;4973184;28;20175;-86
2021/03/05 02:15:09;;;;;;;36.40;15.90;;;1.60;99.90;;;;;;4956245;28;20202;-86
2021/03/05 02:17:41;;;;;;;38.07;15.43;;;1.60;99.90;;;;;;4973207;28;20187;-86
2021/03/05 02:20:18;;;;;;;39.40;17.03;;;1.60;99.90;;;;;;4972716;28;20651;-86
2021/03/05 02:23:05;;;;;;;35.43;17.50;;;1.60;99.90;;;;;;4973186;28;20646;-87
2021/03/05 02:25:50;;;;;;;34.50;15.60;;;1.60;99.90;;;;;;4955942;28;20182;-87
2021/03/05 02:28:38;;;;;;;36.90;15.73;;;3.00;99.90;;;;;;4973132;28;20190;-87
2021/03/05 02:31:44;;;;;;;32.70;15.20;;;1.60;99.90;;;;;;4973140;28;20529;-88
2021/03/05 02:34:38;;;;;;;39.47;16.33;;;1.60;99.90;;;;;;4974049;28;20201;-87
2021/03/05 02:37:05;;;;;;;30.93;14.27;;;1.60;99.90;;;;;;4970858;28;20194;-87
2021/03/05 02:39:46;;;;;;;31.83;15.73;;;1.60;99.90;;;;;;4974120;28;20184;-87
2021/03/05 02:42:22;;;;;;;34.47;15.93;;;1.60;99.90;;;;;;4974025;28;20234;-87
2021/03/05 02:44:54;;;;;;;32.03;15.10;;;1.60;99.90;;;;;;4974273;28;20635;-87
2021/03/05 02:47:22;;;;;;;18.13;9.37;;;3.20;99.90;;;;;;4956935;28;20178;-88
2021/03/05 02:49:53;;;;;;;26.03;13.13;;;3.40;99.90;;;;;;4973876;28;20179;-87
2021/03/05 02:52:20;;;;;;;34.60;15.33;;;1.60;99.90;;;;;;4974460;28;20173;-87
2021/03/05 02:54:52;;;;;;;25.33;12.87;;;3.10;99.90;;;;;;4973645;28;20665;-87
2021/03/05 02:57:19;;;;;;;27.43;13.23;;;3.30;99.90;;;;;;4974182;28;20167;-88
2021/03/05 02:59:47;;;;;;;30.13;13.93;;;1.60;99.90;;;;;;4956456;28;20276;-87
2021/03/05 03:02:14;;;;;;;28.20;13.00;;;1.60;99.90;;;;;;4974103;28;20265;-87
2021/03/05 03:04:44;;;;;;;26.77;13.20;;;2.80;99.90;;;;;;4974099;28;20239;-88
2021/03/05 03:07:12;;;;;;;26.03;11.73;;;1.60;99.90;;;;;;4973677;28;20174;-87
2021/03/05 03:09:40;;;;;;;20.87;10.17;;;1.50;99.90;;;;;;4956416;28;20192;-87
2021/03/05 03:12:09;;;;;;;19.03;10.27;;;1.50;99.90;;;;;;4973952;28;21021;-88
2021/03/05 03:14:38;;;;;;;20.67;10.80;;;1.50;99.90;;;;;;4973823;28;20207;-87
2021/03/05 03:17:06;;;;;;;28.17;12.23;;;2.30;99.90;;;;;;4973238;28;20706;-87
2021/03/05 03:19:34;;;;;;;19.53;10.97;;;1.60;99.90;;;;;;4956547;28;20707;-87
2021/03/05 03:22:02;;;;;;;56.83;20.90;;;1.50;99.90;;;;;;4940573;28;20183;-87
2021/03/05 03:24:28;;;;;;;22.00;11.10;;;1.90;99.90;;;;;;4957176;28;20187;-87
2021/03/05 03:26:53;;;;;;;19.07;9.70;;;1.70;99.90;;;;;;4973393;28;20179;-86
2021/03/05 03:29:19;;;;;;;20.10;9.67;;;1.70;99.90;;;;;;4957035;28;20194;-87
2021/03/05 03:31:45;;;;;;;18.27;9.83;;;3.00;99.90;;;;;;4975196;28;20632;-87
2021/03/05 03:34:12;;;;;;;17.23;9.30;;;2.50;99.90;;;;;;4976959;28;20202;-85
2021/03/05 03:36:39;;;;;;;18.57;9.43;;;1.50;99.90;;;;;;4977599;28;20185;-85
2021/03/05 03:39:07;;;;;;;15.47;8.80;;;1.40;99.90;;;;;;4944083;28;20663;-85
2021/03/05 03:41:34;;;;;;;18.30;8.67;;;1.90;99.90;;;;;;4962427;28;20234;-85
2021/03/05 03:44:00;;;;;;;13.90;9.07;;;1.40;99.90;;;;;;4976224;28;20182;-86
2021/03/05 03:46:26;;;;;;;18.13;10.93;;;1.30;99.90;;;;;;4975630;28;20189;-87
2021/03/05 03:49:00;;;;;;;21.40;10.97;;;2.50;99.90;;;;;;4975802;28;20264;-85
2021/03/05 03:51:28;;;;;;;18.03;10.03;;;1.40;99.90;;;;;;4978741;28;20168;-85
2021/03/05 03:53:56;;;;;;;20.13;9.43;;;1.30;99.90;;;;;;4959990;28;20214;-85
2021/03/05 03:56:25;;;;;;;12.83;7.53;;;2.20;99.90;;;;;;4975720;28;20194;-84
2021/03/05 03:58:53;;;;;;;10.33;6.43;;;3.00;99.90;;;;;;4976891;28;20179;-87
2021/03/05 04:01:21;;;;;;;12.93;8.07;;;2.10;99.90;;;;;;4976474;28;20188;-87
2021/03/05 04:03:50;;;;;;;9.37;6.43;;;1.60;99.90;;;;;;4977022;28;20261;-89
2021/03/05 04:06:23;;;;;;;8.60;5.33;;;2.70;99.90;;;;;;4976105;28;20186;-86
2021/03/05 04:08:51;;;;;;;7.17;4.03;;;1.00;99.90;;;;;;4975571;28;20179;-87
2021/03/05 04:11:18;;;;;;;8.77;5.10;;;1.90;99.90;;;;;;4976302;28;20206;-87
2021/03/05 04:13:45;;;;;;;8.03;3.10;;;1.10;99.90;;;;;;4975301;28;20214;-87
2021/03/05 04:16:11;;;;;;;8.30;3.63;;;1.70;99.90;;;;;;4974739;28;20547;-87
2021/03/05 04:18:38;;;;;;;4.40;3.10;;;1.50;99.90;;;;;;4975353;28;20182;-88
2021/03/05 04:21:17;;;;;;;4.37;3.30;;;1.70;99.90;;;;;;4958993;28;20281;-87
2021/03/05 04:23:43;;;;;;;8.30;3.90;;;0.60;99.90;;;;;;4975165;28;20186;-91
2021/03/05 04:26:08;;;;;;;5.27;3.27;;;1.80;99.90;;;;;;4974728;28;20186;-87
2021/03/05 04:28:34;;;;;;;6.63;3.50;;;1.00;99.90;;;;;;4959028;28;20185;-87
2021/03/05 04:31:00;;;;;;;7.33;2.90;;;0.40;99.90;;;;;;4974370;28;20185;-87
2021/03/05 04:33:25;;;;;;;7.27;3.40;;;0.30;99.90;;;;;;4975707;28;20260;-88
2021/03/05 04:35:51;;;;;;;9.73;4.27;;;1.20;99.90;;;;;;4974889;28;20658;-88
2021/03/05 04:38:17;;;;;;;8.43;4.17;;;0.60;99.90;;;;;;4975675;28;20198;-87
2021/03/05 04:40:43;;;;;;;11.67;5.20;;;0.30;99.90;;;;;;4976175;28;20183;-88
2021/03/05 04:43:08;;;;;;;8.13;4.97;;;1.00;99.90;;;;;;4973338;28;20252;-88
2021/03/05 04:45:34;;;;;;;20.07;10.73;;;0.40;99.90;;;;;;4958625;28;20201;-88
2021/03/05 04:48:00;;;;;;;21.80;10.90;;;0.30;99.90;;;;;;4975879;28;20528;-86
2021/03/05 04:50:25;;;;;;;15.07;8.40;;;0.30;99.90;;;;;;4974611;28;20196;-89
2021/03/05 04:52:51;;;;;;;13.27;7.90;;;0.20;99.90;;;;;;4974748;28;20210;-89
2021/03/05 04:55:16;;;;;;;15.17;8.57;;;1.30;99.90;;;;;;4974173;28;20216;-88
2021/03/05 04:57:42;;;;;;;18.83;10.27;;;2.00;99.90;;;;;;4975543;28;20188;-88
2021/03/05 05:00:08;;;;;;;13.53;6.63;;;1.80;99.90;;;;;;4957799;28;20191;-87
2021/03/05 05:02:34;;;;;;;22.90;10.80;;;0.20;99.90;;;;;;4976082;28;20182;-87
2021/03/05 05:05:00;;;;;;;27.47;13.67;;;0.40;99.90;;;;;;4974331;28;20186;-86
2021/03/05 05:07:25;;;;;;;20.10;10.10;;;2.10;99.90;;;;;;4958244;28;20283;-86
2021/03/05 05:09:51;;;;;;;21.23;9.87;;;0.20;99.90;;;;;;4975443;28;20185;-88
2021/03/05 05:12:18;;;;;;;16.70;7.00;;;0.20;99.90;;;;;;4973784;28;20237;-86
2021/03/05 05:14:44;;;;;;;12.10;5.80;;;1.70;99.90;;;;;;4974122;28;20207;-87
2021/03/05 05:17:10;;;;;;;25.60;10.00;;;0.20;99.90;;;;;;4975068;28;20266;-86
2021/03/05 05:19:35;;;;;;;15.00;8.07;;;0.20;99.90;;;;;;4984413;28;20208;-87
2021/03/05 05:22:01;;;;;;;14.70;7.07;;;0.80;99.90;;;;;;4982779;28;20601;-87
2021/03/05 05:24:27;;;;;;;14.53;5.73;;;0.10;99.90;;;;;;4991150;28;20197;-88
2021/03/05 05:26:53;;;;;;;16.43;7.00;;;0.20;99.90;;;;;;4985357;28;20189;-87
2021/03/05 05:29:18;;;;;;;20.17;8.73;;;0.50;99.90;;;;;;4980143;28;20244;-87
2021/03/05 05:31:44;;;;;;;22.87;9.53;;;1.70;99.90;;;;;;4989524;28;20229;-87
2021/03/05 05:34:10;;;;;;;15.60;6.87;;;1.40;99.90;;;;;;4957960;28;20299;-87
2021/03/05 05:36:35;;;;;;;13.47;5.47;;;1.50;99.90;;;;;;4989741;28;20209;-88
2021/03/05 05:39:01;;;;;;;42.07;14.77;;;2.10;99.90;;;;;;4988419;28;20260;-89
2021/03/05 05:41:26;;;;;;;24.40;9.17;;;0.00;99.90;;;;;;4990666;28;20268;-88
2021/03/05 05:43:52;;;;;;;20.13;7.57;;;2.40;99.90;;;;;;4968746;28;20214;-87
2021/03/05 05:46:21;;;;;;;84.43;21.93;;;0.00;99.90;;;;;;4970989;28;20833;-87
2021/03/05 05:48:49;;;;;;;59.53;17.23;;;2.00;99.90;;;;;;4973830;28;20191;-88
2021/03/05 05:51:22;;;;;;;34.10;8.93;;;1.30;99.90;;;;;;4973986;28;20182;-87
2021/03/05 05:53:48;;;;;;;25.10;9.00;;;1.20;99.90;;;;;;4982973;28;20235;-91
2021/03/05 05:56:15;;;;;;;43.73;11.73;;;1.20;99.90;;;;;;4986640;28;20203;-88
2021/03/05 05:58:42;;;;;;;44.87;13.63;;;1.20;99.90;;;;;;4964044;28;20189;-89
2021/03/05 06:01:08;;;;;;;20.50;8.27;;;0.00;99.90;;;;;;4964391;28;20184;-88
2021/03/05 06:03:34;;;;;;;28.00;10.63;;;1.50;99.90;;;;;;4970041;28;20660;-88
2021/03/05 06:06:00;;;;;;;40.93;13.63;;;0.20;99.90;;;;;;4945319;28;20277;-89
2021/03/05 06:08:28;;;;;;;31.87;14.00;;;0.50;99.90;;;;;;4980478;28;20321;-88
2021/03/05 06:10:54;;;;;;;50.80;17.60;;;0.10;99.90;;;;;;4976416;28;20203;-87
2021/03/05 06:13:20;;;;;;;50.63;17.90;;;2.10;99.90;;;;;;4979889;28;20201;-86
2021/03/05 06:16:12;;;;;;;22.50;10.30;;;0.20;99.90;;;;;;4981480;28;20535;-89
2021/03/05 06:18:38;;;;;;;27.10;10.67;;;0.30;99.90;;;;;;4983304;28;20230;-88
2021/03/05 06:21:04;;;;;;;18.37;8.17;;;0.40;99.90;;;;;;4982479;28;20213;-89
2021/03/05 06:23:33;;;;;;;17.93;8.27;;;0.40;99.90;;;;;;4987811;28;20202;-88
2021/03/05 06:26:00;;;;;;;19.80;8.73;;;0.40;99.90;;;;;;4959872;28;20564;-90
2021/03/05 06:28:27;;;;;;;21.97;10.10;;;0.40;99.90;;;;;;4957881;28;20194;-91
2021/03/05 06:30:53;;;;;;;19.33;9.30;;;0.40;99.90;;;;;;4947338;28;20200;-89
2021/03/05 06:33:28;;;;;;;20.90;9.90;;;0.30;99.90;;;;;;4969906;28;20198;-90
2021/03/05 06:35:55;;;;;;;39.63;14.33;;;0.40;99.90;;;;;;4971519;28;20185;-87
2021/03/05 06:38:40;;;;;;;28.73;12.70;;;2.00;99.90;;;;;;4968648;28;20190;-89
2021/03/05 06:41:27;;;;;;;38.33;15.33;;;0.30;99.90;;;;;;4963660;28;20197;-87
2021/03/05 06:43:55;;;;;;;62.70;23.77;;;0.40;99.90;;;;;;4990954;28;20185;-88
2021/03/05 06:46:34;;;;;;;27.47;11.13;;;0.40;99.90;;;;;;4960413;28;20273;-89
2021/03/05 06:49:02;;;;;;;19.63;8.00;;;0.40;99.90;;;;;;4956725;28;20274;-89
2021/03/05 06:51:28;;;;;;;32.47;14.20;;;2.40;99.90;;;;;;4971470;28;20212;-88
2021/03/05 06:54:10;;;;;;;14.57;8.07;;;0.40;99.90;;;;;;4952709;28;20213;-90
2021/03/05 06:56:38;;;;;;;27.93;10.77;;;0.50;99.90;;;;;;4971157;28;20229;-88
2021/03/05 06:59:12;;;;;;;30.57;10.30;;;0.50;99.90;;;;;;4970619;28;20187;-90
2021/03/05 07:01:51;;;;;;;15.87;6.30;;;0.80;99.90;;;;;;4955527;28;20193;-90
2021/03/05 07:04:27;;;;;;;32.33;11.33;;;0.50;99.90;;;;;;4974940;28;20254;-87
2021/03/05 07:07:12;;;;;;;17.80;9.17;;;1.90;99.90;;;;;;4986852;28;20583;-90
2021/03/05 07:09:48;;;;;;;20.53;10.37;;;2.40;99.90;;;;;;4985013;28;20253;-90
2021/03/05 07:12:18;;;;;;;23.33;12.10;;;2.40;99.90;;;;;;4969837;28;20190;-91
2021/03/05 07:14:46;;;;;;;37.73;13.43;;;0.60;99.90;;;;;;4983863;28;20205;-91
2021/03/05 07:17:14;;;;;;;11.90;7.77;;;2.00;99.90;;;;;;4984054;28;20226;-92
2021/03/05 07:19:40;;;;;;;30.93;12.87;;;0.80;99.90;;;;;;4992702;28;20285;-91
2021/03/05 07:22:07;;;;;;;28.37;12.33;;;0.80;99.90;;;;;;4968238;28;20199;-89
2021/03/05 07:24:34;;;;;;;13.60;5.93;;;0.80;99.90;;;;;;4976239;28;20189;-89
2021/03/05 07:27:02;;;;;;;37.97;16.00;;;0.80;99.90;;;;;;4958830;28;20579;-90
2021/03/05 07:29:43;;;;;;;25.07;12.10;;;0.80;99.90;;;;;;4975114;28;20178;-90
2021/03/05 07:32:26;;;;;;;29.47;11.90;;;0.80;99.90;;;;;;4958066;28;20183;-89
2021/03/05 07:34:59;;;;;;;42.27;13.87;;;0.80;99.90;;;;;;4982742;28;20262;-90
2021/03/05 07:37:30;;;;;;;35.33;15.43;;;2.40;99.90;;;;;;4960368;28;20274;-90
2021/03/05 07:40:01;;;;;;;25.40;11.53;;;0.90;99.90;;;;;;4959277;28;20744;-89
2021/03/05 07:42:29;;;;;;;17.50;8.10;;;1.00;99.90;;;;;;4976294;28;20269;-90
2021/03/05 07:44:56;;;;;;;22.47;8.83;;;1.80;99.90;;;;;;4976385;28;20647;-89
2021/03/05 07:47:25;;;;;;;13.67;7.13;;;1.10;99.90;;;;;;4979008;28;20187;-90
2021/03/05 07:49:57;;;;;;;11.97;6.20;;;1.10;99.90;;;;;;4985631;28;20185;-90
2021/03/05 07:52:23;;;;;;;17.63;8.77;;;3.30;99.90;;;;;;4986331;28;20175;-88
2021/03/05 07:54:50;;;;;;;30.33;12.47;;;2.90;99.90;;;;;;4966317;28;20560;-88
2021/03/05 07:57:18;;;;;;;28.97;13.20;;;2.50;99.90;;;;;;4985234;28;20235;-88
2021/03/05 07:59:44;;;;;;;20.73;8.80;;;1.80;99.90;;;;;;4983751;28;20256;-88
2021/03/05 08:02:11;;;;;;;26.30;10.17;;;1.30;99.90;;;;;;4968590;28;20186;-89
2021/03/05 08:05:07;;;;;;;13.00;6.70;;;1.30;99.90;;;;;;4980733;28;20190;-88
2021/03/05 08:07:36;;;;;;;23.40;9.17;;;1.90;99.90;;;;;;4976195;28;20180;-90
2021/03/05 08:10:03;;;;;;;18.37;7.67;;;1.40;99.90;;;;;;4976683;28;20222;-89
2021/03/05 08:12:39;;;;;;;20.33;9.93;;;1.40;99.90;;;;;;4958363;28;20284;-89
2021/03/05 08:15:08;;;;;;;15.30;7.50;;;1.50;99.90;;;;;;4958874;28;20262;-89
2021/03/05 08:17:47;;;;;;;10.17;6.37;;;1.50;99.90;;;;;;4958641;28;20214;-89
2021/03/05 08:20:18;;;;;;;16.13;7.50;;;1.50;99.90;;;;;;4974598;28;20157;-89
2021/03/05 08:23:01;;;;;;;16.10;8.13;;;1.60;99.90;;;;;;4974128;28;20265;-89
2021/03/05 08:25:31;;;;;;;19.30;8.50;;;1.50;99.90;;;;;;4956619;28;20257;-87
2021/03/05 08:27:59;;;;;;;17.63;8.27;;;1.60;99.90;;;;;;4957109;28;20186;-89
2021/03/05 08:30:33;;;;;;;24.27;10.70;;;1.60;99.90;;;;;;4974718;28;20196;-87
2021/03/05 08:33:00;;;;;;;17.80;9.17;;;2.90;99.90;;;;;;4957476;28;20670;-89
2021/03/05 08:35:28;;;;;;;12.00;5.77;;;2.80;99.90;;;;;;4958082;28;20242;-87
2021/03/05 08:38:06;;;;;;;12.70;6.90;;;1.80;99.90;;;;;;4958824;28;20182;-89
2021/03/05 08:40:34;;;;;;;17.70;7.53;;;1.80;99.90;;;;;;4975946;28;20159;-89
2021/03/05 08:43:14;;;;;;;14.27;7.30;;;1.80;99.90;;;;;;4976271;28;20253;-88
2021/03/05 08:45:45;;;;;;;13.63;7.10;;;3.50;99.90;;;;;;4975626;28;20302;-89
2021/03/05 08:48:15;;;;;;;13.40;6.47;;;1.70;99.90;;;;;;4975937;28;20178;-89
2021/03/05 08:50:42;;;;;;;12.60;6.47;;;1.70;99.90;;;;;;4958951;28;20308;-89
2021/03/05 08:53:15;;;;;;;13.93;6.83;;;3.20;99.90;;;;;;4975952;28;20196;-91
2021/03/05 08:55:42;;;;;;;24.40;6.73;;;2.60;99.90;;;;;;4975385;28;20698;-89
2021/03/05 08:58:08;;;;;;;30.80;8.93;;;1.70;99.90;;;;;;4960059;28;20215;-89
2021/03/05 09:00:35;;;;;;;11.73;6.33;;;1.80;99.90;;;;;;4963270;28;20186;-89
2021/03/05 09:03:14;;;;;;;19.70;7.33;;;1.90;99.90;;;;;;4945237;28;20209;-89
2021/03/05 09:05:42;;;;;;;10.80;5.57;;;2.00;99.90;;;;;;4977062;28;20181;-88
2021/03/05 09:08:10;;;;;;;16.93;6.40;;;2.00;99.90;;;;;;4974760;28;20301;-89
2021/03/05 09:10:44;;;;;;;10.37;4.70;;;2.30;99.90;;;;;;4941659;28;20191;-88
2021/03/05 09:13:12;;;;;;;7.77;4.37;;;2.00;99.90;;;;;;4973778;28;20237;-89
2021/03/05 09:15:45;;;;;;;9.40;4.73;;;2.00;99.90;;;;;;4958289;28;20222;-88
2021/03/05 09:18:13;;;;;;;10.80;4.50;;;2.00;99.90;;;;;;4960391;28;20179;-87
2021/03/05 09:20:44;;;;;;;9.97;4.73;;;2.00;99.90;;;;;;4983725;28;20179;-87
2021/03/05 09:23:34;;;;;;;12.87;5.30;;;2.10;99.90;;;;;;4966497;28;20181;-88
2021/03/05 09:26:05;;;;;;;9.00;3.97;;;2.10;99.90;;;;;;4975734;28;20190;-86
2021/03/05 09:28:44;;;;;;;10.77;4.37;;;2.10;99.90;;;;;;4966883;28;20185;-89
2021/03/05 09:31:14;;;;;;;19.30;7.90;;;2.10;99.90;;;;;;4985587;28;20179;-91
2021/03/05 09:33:42;;;;;;;19.43;7.67;;;2.70;99.90;;;;;;4983724;28;20199;-90
2021/03/05 09:36:12;;;;;;;29.80;9.57;;;2.10;99.90;;;;;;4969052;28;20186;-91
2021/03/05 09:38:41;;;;;;;21.87;8.13;;;2.10;99.90;;;;;;4951410;28;20658;-89
2021/03/05 09:41:14;;;;;;;12.43;5.37;;;2.10;99.90;;;;;;4966878;28;20183;-89
2021/03/05 09:43:41;;;;;;;39.80;11.73;;;2.10;99.90;;;;;;4982834;28;20171;-87
2021/03/05 09:46:39;;;;;;;12.93;6.20;;;2.10;99.90;;;;;;4985589;28;20218;-86
2021/03/05 09:49:21;;;;;;;14.70;5.77;;;2.20;99.90;;;;;;4967759;28;20186;-90
2021/03/05 09:51:47;;;;;;;14.60;5.97;;;2.40;99.90;;;;;;4963731;28;20194;-87
2021/03/05 09:54:13;;;;;;;15.27;5.03;;;2.60;99.90;;;;;;4986480;28;20233;-84
2021/03/05 09:56:44;;;;;;;15.50;5.83;;;2.70;99.90;;;;;;4968947;28;20187;-84
2021/03/05 09:59:10;;;;;;;33.30;11.27;;;2.90;98.90;;;;;;4986755;28;20592;-83
2021/03/05 10:01:41;;;;;;;70.20;16.67;;;3.10;92.70;;;;;;4981670;28;20216;-84
2021/03/05 10:04:08;;;;;;;27.80;8.33;;;3.50;86.90;;;;;;4982714;28;20183;-85
2021/03/05 10:06:34;;;;;;;20.93;6.93;;;3.40;89.70;;;;;;4979883;28;20271;-86
2021/03/05 10:09:07;;;;;;;20.10;7.70;;;3.70;81.50;;;;;;4964768;28;20238;-84
2021/03/05 10:11:37;;;;;;;8.47;3.83;;;3.90;82.70;;;;;;4980229;28;20179;-84
2021/03/05 10:14:09;;;;;;;13.23;5.83;;;3.80;75.20;;;;;;4983087;28;20201;-84
2021/03/05 10:16:40;;;;;;;8.27;3.47;;;4.40;75.70;;;;;;4970764;28;20183;-84
2021/03/05 10:19:14;;;;;;;3.00;1.57;;;4.20;71.70;;;;;;4976475;28;20219;-87
2021/03/05 10:21:48;;;;;;;3.60;2.30;;;4.10;62.80;;;;;;4990105;28;20250;-85
2021/03/05 10:24:19;;;;;;;8.67;3.93;;;4.10;61.20;;;;;;4993232;28;20184;-92
2021/03/05 10:27:10;;;;;;;8.37;3.40;;;4.30;65.10;;;;;;4992858;28;20191;-87
2021/03/05 10:29:47;;;;;;;3.87;2.23;;;4.50;62.70;;;;;;4990379;28;20179;-87
2021/03/05 10:32:23;;;;;;;9.87;3.70;;;4.40;61.00;;;;;;4981844;28;20176;-87
2021/03/05 10:34:51;;;;;;;3.40;2.00;;;4.30;62.20;;;;;;4982642;28;20202;-86
2021/03/05 10:37:17;;;;;;;12.57;5.33;;;4.40;58.90;;;;;;4964462;28;20238;-87
2021/03/05 10:39:45;;;;;;;8.53;3.83;;;3.90;60.60;;;;;;4983273;28;20180;-87
2021/03/05 10:42:13;;;;;;;8.23;3.33;;;3.90;60.00;;;;;;4985062;28;20225;-86
2021/03/05 10:44:40;;;;;;;5.37;3.13;;;3.90;57.50;;;;;;4968363;28;20635;-87
2021/03/05 10:47:10;;;;;;;4.60;2.57;;;4.00;59.20;;;;;;4986804;28;20179;-89
2021/03/05 10:49:37;;;;;;;6.33;2.80;;;4.00;58.80;;;;;;4987708;28;20184;-87
2021/03/05 10:52:04;;;;;;;10.13;3.30;;;3.90;59.90;;;;;;4968404;28;20179;-89
2021/03/05 10:54:30;;;;;;;4.43;2.37;;;4.00;57.20;;;;;;4986358;28;20197;-90
2021/03/05 10:56:56;;;;;;;10.83;4.77;;;3.90;53.90;;;;;;4988088;28;20204;-87
2021/03/05 10:59:23;;;;;;;4.67;2.70;;;3.90;57.80;;;;;;4968393;28;20180;-88
2021/03/05 11:01:53;;;;;;;6.27;2.90;;;4.10;56.40;;;;;;4970576;28;20551;-90
2021/03/05 11:04:20;;;;;;;5.63;3.50;;;4.00;55.70;;;;;;4968613;28;20187;-92
2021/03/05 11:06:46;;;;;;;5.07;3.00;;;4.10;57.60;;;;;;4988351;28;20486;-86
2021/03/05 11:09:13;;;;;;;8.07;4.03;;;4.30;56.40;;;;;;4996449;28;20317;-89
2021/03/05 11:11:41;;;;;;;6.17;3.57;;;4.40;58.20;;;;;;4993867;28;20245;-88
2021/03/05 11:14:07;;;;;;;6.30;3.17;;;4.70;57.90;;;;;;4981821;28;20211;-89
2021/03/05 11:16:32;;;;;;;4.23;1.90;;;4.70;54.40;;;;;;4949701;28;20216;-87
2021/03/05 11:18:59;;;;;;;11.73;4.57;;;4.60;53.20;;;;;;4954148;28;20186;-89
2021/03/05 11:21:24;;;;;;;10.27;4.27;;;4.60;54.30;;;;;;4983111;28;20190;-88
2021/03/05 11:23:51;;;;;;;4.20;2.17;;;4.60;53.50;;;;;;4984311;28;20189;-86
2021/03/05 11:26:17;;;;;;;4.33;2.17;;;4.50;51.10;;;;;;4986552;28;20198;-86
2021/03/05 11:28:43;;;;;;;5.67;2.17;;;4.50;51.00;;;;;;4967670;28;20268;-87
2021/03/05 11:31:12;;;;;;;5.00;1.80;;;4.50;51.00;;;;;;4968296;28;20203;-87
2021/03/05 11:33:39;;;;;;;3.83;2.00;;;4.50;49.60;;;;;;4986757;28;20203;-86
2021/03/05 11:36:05;;;;;;;4.93;2.50;;;4.40;48.40;;;;;;4963927;28;20551;-85
2021/03/05 11:38:31;;;;;;;4.17;1.80;;;4.50;48.50;;;;;;4948554;28;20217;-87
2021/03/05 11:40:57;;;;;;;8.07;2.03;;;4.50;47.10;;;;;;4981401;28;20189;-87
2021/03/05 11:43:23;;;;;;;13.87;7.83;;;4.50;47.10;;;;;;4981385;28;20199;-85
2021/03/05 11:45:48;;;;;;;4.37;1.60;;;4.50;50.30;;;;;;4989780;28;20192;-87
2021/03/05 11:48:14;;;;;;;6.43;2.23;;;4.60;48.80;;;;;;4965877;28;20199;-85
2021/03/05 11:50:40;;;;;;;8.63;2.87;;;4.60;48.00;;;;;;4982525;28;20188;-86
2021/03/05 11:53:05;;;;;;;2.30;1.70;;;4.70;49.10;;;;;;4969731;28;20272;-84
2021/03/05 11:55:32;;;;;;;5.33;2.90;;;4.70;46.50;;;;;;4966960;28;20634;-86
2021/03/05 11:58:00;;;;;;;3.23;2.23;;;4.70;47.00;;;;;;4968705;28;20209;-85
2021/03/05 12:00:26;;;;;;;9.00;2.93;;;4.70;45.70;;;;;;4970377;28;20628;-85
2021/03/05 12:02:52;;;;;;;7.03;3.17;;;4.80;47.70;;;;;;4986384;28;20261;-85
2021/03/05 12:05:17;;;;;;;3.77;2.30;;;4.80;48.00;;;;;;4984058;28;20281;-87
2021/03/05 12:07:43;;;;;;;5.57;2.50;;;4.90;48.00;;;;;;4969242;28;20189;-86
2021/03/05 12:10:09;;;;;;;11.03;4.10;;;5.10;47.90;;;;;;4966533;28;20182;-87
2021/03/05 12:12:35;;;;;;;8.27;3.80;;;5.20;49.00;;;;;;4950740;28;20537;-86
2021/03/05 12:15:00;;;;;;;6.50;2.70;;;5.40;49.80;;;;;;4985931;28;20285;-86
2021/03/05 12:17:26;;;;;;;13.03;3.47;;;5.30;50.20;;;;;;4984144;28;20277;-87
2021/03/05 12:19:52;;;;;;;6.67;2.77;;;5.20;46.80;;;;;;4969240;28;20189;-87
2021/03/05 12:22:17;;;;;;;14.63;7.70;;;5.10;47.00;;;;;;4966229;28;20712;-87
2021/03/05 12:24:43;;;;;;;2.93;1.53;;;5.20;46.80;;;;;;4986401;28;20189;-86
2021/03/05 12:27:09;;;;;;;3.93;1.67;;;5.10;44.30;;;;;;4984252;28;20196;-88
2021/03/05 12:29:34;;;;;;;4.90;2.40;;;5.10;45.40;;;;;;4951597;28;20190;-87
2021/03/05 12:32:00;;;;;;;4.50;2.10;;;5.30;46.70;;;;;;4968891;28;20217;-86
2021/03/05 12:34:26;;;;;;;6.20;2.27;;;5.10;44.80;;;;;;4984084;28;20308;-87
2021/03/05 12:36:51;;;;;;;5.73;2.27;;;5.20;44.70;;;;;;4966884;28;20190;-88
2021/03/05 12:39:17;;;;;;;4.53;2.00;;;5.20;42.70;;;;;;4951894;28;20200;-88
2021/03/05 12:41:43;;;;;;;3.47;1.80;;;5.20;43.50;;;;;;4985585;28;20240;-88
2021/03/05 12:44:08;;;;;;;4.43;2.30;;;5.20;44.90;;;;;;4983278;28;20193;-88
2021/03/05 12:46:35;;;;;;;4.90;2.40;;;5.20;46.80;;;;;;4984277;28;20310;-87
2021/03/05 12:49:01;;;;;;;6.77;2.50;;;5.30;48.10;;;;;;4967084;28;20189;-86
2021/03/05 12:51:27;;;;;;;6.23;2.27;;;5.50;48.50;;;;;;4966337;28;20194;-85
2021/03/05 12:53:53;;;;;;;5.20;2.20;;;5.50;45.10;;;;;;4968225;28;20215;-86